createdAt,value
2022-11-28T00:00:46.362Z,992.91
2022-11-28T00:01:46.384Z,992.90
2022-11-28T00:02:46.607Z,992.83
2022-11-28T00:03:46.403Z,992.86
2022-11-28T00:04:46.347Z,992.82
2022-11-28T00:05:47.020Z,992.82
2022-11-28T00:06:47.360Z,992.84
2022-11-28T00:07:46.373Z,992.93
2022-11-28T00:08:46.300Z,992.86
2022-11-28T00:09:46.291Z,992.86
2022-11-28T00:10:46.284Z,992.85
2022-11-28T00:11:46.293Z,992.82
2022-11-28T00:12:46.291Z,992.80
2022-11-28T00:13:46.276Z,992.83
2022-11-28T00:14:46.286Z,992.80
2022-11-28T00:15:46.316Z,992.75
2022-11-28T00:16:46.235Z,992.78
2022-11-28T00:17:46.300Z,992.73
2022-11-28T00:18:46.387Z,992.78
2022-11-28T00:19:46.304Z,992.74
2022-11-28T00:20:46.221Z,992.73
2022-11-28T00:21:46.226Z,992.70
2022-11-28T00:22:46.239Z,992.70
2022-11-28T00:23:46.207Z,992.74
2022-11-28T00:24:46.215Z,992.74
2022-11-28T00:25:46.200Z,992.78
2022-11-28T00:26:46.220Z,992.78
2022-11-28T00:27:46.188Z,992.72
2022-11-28T00:28:46.203Z,992.72
2022-11-28T00:29:46.176Z,992.66
2022-11-28T00:30:46.205Z,992.55
2022-11-28T00:31:46.276Z,992.62
2022-11-28T00:32:46.151Z,992.57
2022-11-28T00:33:46.211Z,992.55
2022-11-28T00:34:46.158Z,992.63
2022-11-28T00:35:46.220Z,992.60
2022-11-28T00:36:46.176Z,992.54
2022-11-28T00:37:46.161Z,992.57
2022-11-28T00:38:46.144Z,992.55
2022-11-28T00:39:46.128Z,992.55
2022-11-28T00:40:46.122Z,992.52
2022-11-28T00:41:46.111Z,992.51
2022-11-28T00:42:46.230Z,992.57
2022-11-28T00:43:46.137Z,992.55
2022-11-28T00:44:46.089Z,992.49
2022-11-28T00:45:46.113Z,992.55
2022-11-28T00:46:46.112Z,992.54
2022-11-28T00:47:46.087Z,992.52
2022-11-28T00:48:46.110Z,992.50
2022-11-28T00:49:46.059Z,992.48
2022-11-28T00:50:46.067Z,992.48
2022-11-28T00:51:46.119Z,992.47
2022-11-28T00:52:46.069Z,992.48
2022-11-28T00:53:46.068Z,992.48
2022-11-28T00:54:46.043Z,992.47
2022-11-28T00:55:46.055Z,992.45
2022-11-28T00:56:46.049Z,992.44
2022-11-28T00:57:46.036Z,992.41
2022-11-28T00:58:46.043Z,992.41
2022-11-28T00:59:46.011Z,992.44
2022-11-28T01:00:46.100Z,992.44
2022-11-28T01:01:46.149Z,992.48
2022-11-28T01:02:46.030Z,992.42
2022-11-28T01:03:46.013Z,992.42
2022-11-28T01:04:45.988Z,992.47
2022-11-28T01:05:45.988Z,992.38
2022-11-28T01:06:45.993Z,992.39
2022-11-28T01:07:46.131Z,992.38
2022-11-28T01:08:45.954Z,992.40
2022-11-28T01:09:45.966Z,992.39
2022-11-28T01:10:45.934Z,992.43
2022-11-28T01:11:45.955Z,992.43
2022-11-28T01:12:45.974Z,992.40
2022-11-28T01:13:45.954Z,992.44
2022-11-28T01:14:45.935Z,992.36
2022-11-28T01:15:45.937Z,992.43
2022-11-28T01:16:45.953Z,992.36
2022-11-28T01:17:45.945Z,992.32
2022-11-28T01:18:45.898Z,992.37
2022-11-28T01:19:45.912Z,992.41
2022-11-28T01:20:45.901Z,992.31
2022-11-28T01:21:45.883Z,992.33
2022-11-28T01:22:45.899Z,992.34
2022-11-28T01:23:46.941Z,992.29
2022-11-28T01:24:45.893Z,992.31
2022-11-28T01:25:45.856Z,992.27
2022-11-28T01:26:45.855Z,992.23
2022-11-28T01:27:45.907Z,992.26
2022-11-28T01:28:45.929Z,992.28
2022-11-28T01:29:45.861Z,992.25
2022-11-28T01:30:45.844Z,992.25
2022-11-28T01:31:45.887Z,992.22
2022-11-28T01:32:45.833Z,992.21
2022-11-28T01:33:45.842Z,992.21
2022-11-28T01:34:45.802Z,992.19
2022-11-28T01:35:45.901Z,992.19
2022-11-28T01:36:45.828Z,992.19
2022-11-28T01:37:45.799Z,992.17
2022-11-28T01:38:46.832Z,992.17
2022-11-28T01:39:45.855Z,992.16
2022-11-28T01:40:45.767Z,992.15
2022-11-28T01:41:45.837Z,992.14
2022-11-28T01:42:45.769Z,992.15
2022-11-28T01:43:45.769Z,992.20
2022-11-28T01:44:45.748Z,992.19
2022-11-28T01:45:45.807Z,992.18
2022-11-28T01:46:45.841Z,992.10
2022-11-28T01:47:45.762Z,992.14
2022-11-28T01:48:45.744Z,992.11
2022-11-28T01:49:45.765Z,992.13
2022-11-28T01:50:45.736Z,992.16
2022-11-28T01:51:45.746Z,992.19
2022-11-28T01:52:45.698Z,992.20
2022-11-28T01:53:45.701Z,992.14
2022-11-28T01:54:45.816Z,992.13
2022-11-28T01:55:45.774Z,992.11
2022-11-28T01:56:45.750Z,992.11
2022-11-28T01:57:45.675Z,992.09
2022-11-28T01:58:45.747Z,992.09
2022-11-28T01:59:45.682Z,992.07
2022-11-28T02:00:45.769Z,992.04
2022-11-28T02:01:45.694Z,992.04
2022-11-28T02:02:45.645Z,992.07
2022-11-28T02:03:45.757Z,992.01
2022-11-28T02:04:45.662Z,991.95
2022-11-28T02:05:45.689Z,991.97
2022-11-28T02:06:46.638Z,991.93
2022-11-28T02:07:45.677Z,991.88
2022-11-28T02:08:45.619Z,991.89
2022-11-28T02:09:45.628Z,991.86
2022-11-28T02:10:45.619Z,991.85
2022-11-28T02:11:45.672Z,991.83
2022-11-28T02:12:45.632Z,991.77
2022-11-28T02:13:45.603Z,991.77
2022-11-28T02:14:45.608Z,991.77
2022-11-28T02:15:45.584Z,991.76
2022-11-28T02:16:45.612Z,991.81
2022-11-28T02:17:45.606Z,991.77
2022-11-28T02:18:50.382Z,991.72
2022-11-28T02:19:47.571Z,991.72
2022-11-28T02:20:45.584Z,991.72
2022-11-28T02:21:45.568Z,991.68
2022-11-28T02:22:45.545Z,991.65
2022-11-28T02:23:45.554Z,991.63
2022-11-28T02:24:45.532Z,991.57
2022-11-28T02:25:45.568Z,991.57
2022-11-28T02:26:45.534Z,991.54
2022-11-28T02:27:45.584Z,991.53
2022-11-28T02:28:45.543Z,991.53
2022-11-28T02:29:45.512Z,991.58
2022-11-28T02:30:45.501Z,991.56
2022-11-28T02:31:45.551Z,991.60
2022-11-28T02:32:45.477Z,991.58
2022-11-28T02:33:45.489Z,991.52
2022-11-28T02:34:47.055Z,991.54
2022-11-28T02:35:46.459Z,991.57
2022-11-28T02:36:45.479Z,991.52
2022-11-28T02:37:45.473Z,991.47
2022-11-28T02:38:45.447Z,991.44
2022-11-28T02:39:45.437Z,991.41
2022-11-28T02:40:45.428Z,991.45
2022-11-28T02:41:45.484Z,991.42
2022-11-28T02:42:45.417Z,991.44
2022-11-28T02:43:45.520Z,991.48
2022-11-28T02:44:45.469Z,991.42
2022-11-28T02:45:45.395Z,991.40
2022-11-28T02:46:45.501Z,991.26
2022-11-28T02:47:45.378Z,991.20
2022-11-28T02:48:45.371Z,991.22
2022-11-28T02:49:45.371Z,991.19
2022-11-28T02:50:45.356Z,991.19
2022-11-28T02:51:45.395Z,991.20
2022-11-28T02:52:45.371Z,991.28
2022-11-28T02:53:45.364Z,991.21
2022-11-28T02:54:45.370Z,991.27
2022-11-28T02:55:45.346Z,991.18
2022-11-28T02:56:45.327Z,991.15
2022-11-28T02:57:45.371Z,991.16
2022-11-28T02:58:45.343Z,991.16
2022-11-28T02:59:45.395Z,991.14
2022-11-28T03:00:45.346Z,991.17
2022-11-28T03:01:45.349Z,991.17
2022-11-28T03:02:45.344Z,991.18
2022-11-28T03:03:45.289Z,991.18
2022-11-28T03:04:45.344Z,991.21
2022-11-28T03:05:45.299Z,991.19
2022-11-28T03:06:45.300Z,991.18
2022-11-28T03:07:45.357Z,991.27
2022-11-28T03:08:45.282Z,991.26
2022-11-28T03:09:45.307Z,991.20
2022-11-28T03:10:46.232Z,991.26
2022-11-28T03:11:45.230Z,991.19
2022-11-28T03:12:45.243Z,991.20
2022-11-28T03:13:45.267Z,991.21
2022-11-28T03:14:45.235Z,991.16
2022-11-28T03:15:45.313Z,991.13
2022-11-28T03:16:45.265Z,991.17
2022-11-28T03:17:45.196Z,991.17
2022-11-28T03:18:45.278Z,991.19
2022-11-28T03:19:45.210Z,991.14
2022-11-28T03:20:45.191Z,991.09
2022-11-28T03:21:45.177Z,991.06
2022-11-28T03:22:45.186Z,991.05
2022-11-28T03:23:45.173Z,991.08
2022-11-28T03:24:45.195Z,991.14
2022-11-28T03:25:45.177Z,991.10
2022-11-28T03:26:45.151Z,991.08
2022-11-28T03:27:45.209Z,991.07
2022-11-28T03:28:45.267Z,991.10
2022-11-28T03:29:45.131Z,991.04
2022-11-28T03:30:45.174Z,991.01
2022-11-28T03:31:45.330Z,991.10
2022-11-28T03:32:45.131Z,991.03
2022-11-28T03:33:45.108Z,991.06
2022-11-28T03:34:45.226Z,991.05
2022-11-28T03:35:45.131Z,991.05
2022-11-28T03:36:45.118Z,991.08
2022-11-28T03:37:45.085Z,991.07
2022-11-28T03:38:45.090Z,991.03
2022-11-28T03:39:45.075Z,991.09
2022-11-28T03:40:45.102Z,991.03
2022-11-28T03:41:45.078Z,991.05
2022-11-28T03:42:45.085Z,991.02
2022-11-28T03:43:45.080Z,991.03
2022-11-28T03:44:45.283Z,991.06
2022-11-28T03:45:45.054Z,991.01
2022-11-28T03:46:45.310Z,991.06
2022-11-28T03:47:45.103Z,991.01
2022-11-28T03:48:45.093Z,990.98
2022-11-28T03:49:45.053Z,990.98
2022-11-28T03:50:45.031Z,990.91
2022-11-28T03:51:45.017Z,990.94
2022-11-28T03:52:45.033Z,990.92
2022-11-28T03:53:45.024Z,990.87
2022-11-28T03:54:45.249Z,990.90
2022-11-28T03:55:45.078Z,990.87
2022-11-28T03:56:44.998Z,990.85
2022-11-28T03:57:45.067Z,990.93
2022-11-28T03:58:44.978Z,990.85
2022-11-28T03:59:44.978Z,990.82
2022-11-28T04:00:45.017Z,990.75
2022-11-28T04:01:45.017Z,990.72
2022-11-28T04:02:44.993Z,990.74
2022-11-28T04:03:45.020Z,990.70
2022-11-28T04:04:45.138Z,990.75
2022-11-28T04:05:44.963Z,990.68
2022-11-28T04:06:44.940Z,990.70
2022-11-28T04:07:45.043Z,990.72
2022-11-28T04:08:44.961Z,990.69
2022-11-28T04:09:44.963Z,990.66
2022-11-28T04:10:44.900Z,990.65
2022-11-28T04:11:44.902Z,990.65
2022-11-28T04:12:44.933Z,990.56
2022-11-28T04:13:44.944Z,990.54
2022-11-28T04:14:45.095Z,990.59
2022-11-28T04:15:44.914Z,990.59
2022-11-28T04:16:47.220Z,990.47
2022-11-28T04:17:45.874Z,990.46
2022-11-28T04:18:44.919Z,990.49
2022-11-28T04:19:44.947Z,990.51
2022-11-28T04:20:44.901Z,990.49
2022-11-28T04:21:44.871Z,990.46
2022-11-28T04:22:44.860Z,990.43
2022-11-28T04:23:44.911Z,990.39
2022-11-28T04:24:45.082Z,990.37
2022-11-28T04:25:44.891Z,990.44
2022-11-28T04:26:44.853Z,990.45
2022-11-28T04:27:44.834Z,990.44
2022-11-28T04:28:44.813Z,990.47
2022-11-28T04:29:44.836Z,990.44
2022-11-28T04:30:44.821Z,990.52
2022-11-28T04:31:44.867Z,990.49
2022-11-28T04:32:44.786Z,990.47
2022-11-28T04:33:44.780Z,990.50
2022-11-28T04:34:45.142Z,990.57
2022-11-28T04:35:44.852Z,990.55
2022-11-28T04:36:44.780Z,990.52
2022-11-28T04:37:44.861Z,990.45
2022-11-28T04:38:44.750Z,990.49
2022-11-28T04:39:44.752Z,990.46
2022-11-28T04:40:44.774Z,990.45
2022-11-28T04:41:44.753Z,990.49
2022-11-28T04:42:47.598Z,990.49
2022-11-28T04:43:45.743Z,990.50
2022-11-28T04:44:44.993Z,990.47
2022-11-28T04:45:44.777Z,990.46
2022-11-28T04:46:44.746Z,990.46
2022-11-28T04:47:44.719Z,990.49
2022-11-28T04:48:44.708Z,990.45
2022-11-28T04:49:44.683Z,990.45
2022-11-28T04:50:44.696Z,990.42
2022-11-28T04:51:44.795Z,990.41
2022-11-28T04:52:44.672Z,990.32
2022-11-28T04:53:44.687Z,990.35
2022-11-28T04:54:44.898Z,990.36
2022-11-28T04:55:44.679Z,990.32
2022-11-28T04:56:44.700Z,990.39
2022-11-28T04:57:44.664Z,990.39
2022-11-28T04:58:44.655Z,990.42
2022-11-28T04:59:44.632Z,990.45
2022-11-28T05:00:44.683Z,990.49
2022-11-28T05:01:44.735Z,990.44
2022-11-28T05:02:44.663Z,990.38
2022-11-28T05:03:44.611Z,990.36
2022-11-28T05:04:44.855Z,990.40
2022-11-28T05:05:44.634Z,990.47
2022-11-28T05:06:44.587Z,990.43
2022-11-28T05:07:44.731Z,990.45
2022-11-28T05:08:44.621Z,990.39
2022-11-28T05:09:44.605Z,990.32
2022-11-28T05:10:44.583Z,990.33
2022-11-28T05:11:44.572Z,990.35
2022-11-28T05:12:44.594Z,990.41
2022-11-28T05:13:44.568Z,990.40
2022-11-28T05:14:44.755Z,990.29
2022-11-28T05:15:44.586Z,990.27
2022-11-28T05:16:44.615Z,990.28
2022-11-28T05:17:44.536Z,990.25
2022-11-28T05:18:44.536Z,990.24
2022-11-28T05:19:44.546Z,990.21
2022-11-28T05:20:44.535Z,990.23
2022-11-28T05:21:44.579Z,990.22
2022-11-28T05:22:44.524Z,990.28
2022-11-28T05:23:44.564Z,990.28
2022-11-28T05:24:44.611Z,990.23
2022-11-28T05:25:44.491Z,990.22
2022-11-28T05:26:44.473Z,990.27
2022-11-28T05:27:44.481Z,990.26
2022-11-28T05:28:44.476Z,990.28
2022-11-28T05:29:49.396Z,990.32
2022-11-28T05:30:46.445Z,990.24
2022-11-28T05:31:44.523Z,990.25
2022-11-28T05:32:44.473Z,990.20
2022-11-28T05:33:44.441Z,990.26
2022-11-28T05:34:44.649Z,990.26
2022-11-28T05:35:44.426Z,990.27
2022-11-28T05:36:44.484Z,990.27
2022-11-28T05:37:44.424Z,990.35
2022-11-28T05:38:44.437Z,990.30
2022-11-28T05:39:44.819Z,990.32
2022-11-28T05:40:44.511Z,990.25
2022-11-28T05:41:44.405Z,990.28
2022-11-28T05:42:44.404Z,990.32
2022-11-28T05:43:44.414Z,990.26
2022-11-28T05:44:44.451Z,990.22
2022-11-28T05:45:44.433Z,990.25
2022-11-28T05:46:44.405Z,990.24
2022-11-28T05:47:44.386Z,990.24
2022-11-28T05:48:44.419Z,990.28
2022-11-28T05:49:44.697Z,990.16
2022-11-28T05:50:44.371Z,990.20
2022-11-28T05:51:44.349Z,990.21
2022-11-28T05:52:44.341Z,990.16
2022-11-28T05:53:44.329Z,990.16
2022-11-28T05:54:44.346Z,990.18
2022-11-28T05:55:44.400Z,990.15
2022-11-28T05:56:44.368Z,990.17
2022-11-28T05:57:44.342Z,990.25
2022-11-28T05:58:44.313Z,990.26
2022-11-28T05:59:44.580Z,990.19
2022-11-28T06:00:44.305Z,990.18
2022-11-28T06:01:44.417Z,990.21
2022-11-28T06:02:44.296Z,990.18
2022-11-28T06:03:44.321Z,990.19
2022-11-28T06:04:44.379Z,990.20
2022-11-28T06:05:44.447Z,990.20
2022-11-28T06:06:44.282Z,990.24
2022-11-28T06:07:44.306Z,990.23
2022-11-28T06:08:44.267Z,990.19
2022-11-28T06:09:44.450Z,990.24
2022-11-28T06:10:44.252Z,990.21
2022-11-28T06:11:44.449Z,990.21
2022-11-28T06:12:44.232Z,990.15
2022-11-28T06:13:44.220Z,990.15
2022-11-28T06:14:44.242Z,990.18
2022-11-28T06:15:44.216Z,990.14
2022-11-28T06:16:44.280Z,990.10
2022-11-28T06:17:44.209Z,990.16
2022-11-28T06:18:44.200Z,990.13
2022-11-28T06:19:44.485Z,990.13
2022-11-28T06:20:44.197Z,990.11
2022-11-28T06:21:44.203Z,990.13
2022-11-28T06:22:44.234Z,990.16
2022-11-28T06:23:44.401Z,990.19
2022-11-28T06:24:44.156Z,990.19
2022-11-28T06:25:44.189Z,990.11
2022-11-28T06:26:44.171Z,990.12
2022-11-28T06:27:44.279Z,990.11
2022-11-28T06:28:44.189Z,990.08
2022-11-28T06:29:44.504Z,990.09
2022-11-28T06:30:44.149Z,990.07
2022-11-28T06:31:44.230Z,990.12
2022-11-28T06:32:44.131Z,990.20
2022-11-28T06:33:44.151Z,990.14
2022-11-28T06:34:44.108Z,990.14
2022-11-28T06:35:44.113Z,990.16
2022-11-28T06:36:44.096Z,990.16
2022-11-28T06:37:44.087Z,990.09
2022-11-28T06:38:44.122Z,990.07
2022-11-28T06:39:44.400Z,990.17
2022-11-28T06:40:44.072Z,990.12
2022-11-28T06:41:44.077Z,990.16
2022-11-28T06:42:44.085Z,990.17
2022-11-28T06:43:44.162Z,990.13
2022-11-28T06:44:44.049Z,990.13
2022-11-28T06:45:44.112Z,990.05
2022-11-28T06:46:44.489Z,990.09
2022-11-28T06:47:44.021Z,990.08
2022-11-28T06:48:44.035Z,990.03
2022-11-28T06:49:44.306Z,990.06
2022-11-28T06:50:44.011Z,990.11
2022-11-28T06:51:44.026Z,990.11
2022-11-28T06:52:44.001Z,990.10
2022-11-28T06:53:44.008Z,990.13
2022-11-28T06:54:44.016Z,990.08
2022-11-28T06:55:43.980Z,990.07
2022-11-28T06:56:43.984Z,990.08
2022-11-28T06:57:43.978Z,990.09
2022-11-28T06:58:43.998Z,990.11
2022-11-28T06:59:44.306Z,990.16
2022-11-28T07:00:44.058Z,990.13
2022-11-28T07:01:43.990Z,990.12
2022-11-28T07:02:43.993Z,990.18
2022-11-28T07:03:43.944Z,990.14
2022-11-28T07:04:43.955Z,990.14
2022-11-28T07:05:43.933Z,990.15
2022-11-28T07:06:43.924Z,990.13
2022-11-28T07:07:53.685Z,990.16
2022-11-28T07:08:45.937Z,990.19
2022-11-28T07:09:44.340Z,990.18
2022-11-28T07:10:43.895Z,990.19
2022-11-28T07:11:43.919Z,990.25
2022-11-28T07:12:43.915Z,990.25
2022-11-28T07:13:43.923Z,990.21
2022-11-28T07:14:43.928Z,990.23
2022-11-28T07:15:43.952Z,990.23
2022-11-28T07:16:43.896Z,990.26
2022-11-28T07:17:43.906Z,990.34
2022-11-28T07:18:43.860Z,990.34
2022-11-28T07:19:44.223Z,990.30
2022-11-28T07:20:43.857Z,990.30
2022-11-28T07:21:43.852Z,990.35
2022-11-28T07:22:43.825Z,990.31
2022-11-28T07:23:44.869Z,990.25
2022-11-28T07:24:44.829Z,990.32
2022-11-28T07:25:43.822Z,990.32
2022-11-28T07:26:43.838Z,990.27
2022-11-28T07:27:43.841Z,990.28
2022-11-28T07:28:43.823Z,990.29
2022-11-28T07:29:44.128Z,990.24
2022-11-28T07:30:43.843Z,990.24
2022-11-28T07:31:43.898Z,990.31
2022-11-28T07:32:43.787Z,990.28
2022-11-28T07:33:43.800Z,990.28
2022-11-28T07:34:46.664Z,990.26
2022-11-28T07:35:45.808Z,990.28
2022-11-28T07:36:43.768Z,990.32
2022-11-28T07:37:43.757Z,990.31
2022-11-28T07:38:43.758Z,990.29
2022-11-28T07:39:43.975Z,990.32
2022-11-28T07:40:43.776Z,990.31
2022-11-28T07:41:43.733Z,990.32
2022-11-28T07:42:43.713Z,990.32
2022-11-28T07:43:43.745Z,990.34
2022-11-28T07:44:43.710Z,990.27
2022-11-28T07:46:00.087Z,990.30
2022-11-28T07:46:45.851Z,990.31
2022-11-28T07:47:43.708Z,990.26
2022-11-28T07:48:43.692Z,990.27
2022-11-28T07:49:44.091Z,990.25
2022-11-28T07:50:43.668Z,990.34
2022-11-28T07:51:43.709Z,990.28
2022-11-28T07:52:43.670Z,990.25
2022-11-28T07:53:43.655Z,990.32
2022-11-28T07:54:43.668Z,990.33
2022-11-28T07:55:43.650Z,990.33
2022-11-28T07:57:11.962Z,990.29
2022-11-28T07:57:45.637Z,990.32
2022-11-28T07:58:43.863Z,990.27
2022-11-28T07:59:43.952Z,990.32
2022-11-28T08:00:43.645Z,990.31
2022-11-28T08:01:43.731Z,990.31
2022-11-28T08:02:43.638Z,990.33
2022-11-28T08:03:43.601Z,990.31
2022-11-28T08:04:49.379Z,990.31
2022-11-28T08:05:45.603Z,990.34
2022-11-28T08:06:43.584Z,990.31
2022-11-28T08:07:43.702Z,990.28
2022-11-28T08:08:43.628Z,990.35
2022-11-28T08:09:44.011Z,990.30
2022-11-28T08:10:43.635Z,990.29
2022-11-28T08:11:43.557Z,990.31
2022-11-28T08:12:43.577Z,990.32
2022-11-28T08:13:43.610Z,990.36
2022-11-28T08:14:43.866Z,990.32
2022-11-28T08:15:43.532Z,990.31
2022-11-28T08:16:43.592Z,990.33
2022-11-28T08:17:43.523Z,990.40
2022-11-28T08:18:43.959Z,990.33
2022-11-28T08:19:43.522Z,990.33
2022-11-28T08:20:43.514Z,990.36
2022-11-28T08:21:44.053Z,990.36
2022-11-28T08:22:43.534Z,990.40
2022-11-28T08:23:43.492Z,990.41
2022-11-28T08:24:43.744Z,990.42
2022-11-28T08:25:43.498Z,990.40
2022-11-28T08:26:43.481Z,990.38
2022-11-28T08:27:43.463Z,990.39
2022-11-28T08:28:43.471Z,990.39
2022-11-28T08:29:43.625Z,990.39
2022-11-28T08:30:43.493Z,990.37
2022-11-28T08:31:43.459Z,990.40
2022-11-28T08:32:43.438Z,990.37
2022-11-28T08:33:43.443Z,990.42
2022-11-28T08:34:43.445Z,990.36
2022-11-28T08:35:43.452Z,990.42
2022-11-28T08:36:43.430Z,990.41
2022-11-28T08:37:43.495Z,990.47
2022-11-28T08:38:53.435Z,990.45
2022-11-28T08:39:45.660Z,990.40
2022-11-28T08:40:43.435Z,990.41
2022-11-28T08:41:43.402Z,990.42
2022-11-28T08:42:43.533Z,990.40
2022-11-28T08:43:43.365Z,990.38
2022-11-28T08:44:43.754Z,990.42
2022-11-28T08:45:43.441Z,990.44
2022-11-28T08:46:43.381Z,990.45
2022-11-28T08:47:43.394Z,990.41
2022-11-28T08:48:43.350Z,990.44
2022-11-28T08:49:43.521Z,990.48
2022-11-28T08:50:46.776Z,990.45
2022-11-28T08:51:44.303Z,990.44
2022-11-28T08:52:43.393Z,990.49
2022-11-28T08:53:47.333Z,990.47
2022-11-28T08:54:45.704Z,990.49
2022-11-28T08:55:43.304Z,990.46
2022-11-28T08:56:43.363Z,990.39
2022-11-28T08:57:43.307Z,990.45
2022-11-28T08:58:43.285Z,990.41
2022-11-28T08:59:43.499Z,990.51
2022-11-28T09:00:43.267Z,990.41
2022-11-28T09:01:43.346Z,990.43
2022-11-28T09:02:43.281Z,990.45
2022-11-28T09:03:43.412Z,990.44
2022-11-28T09:04:43.262Z,990.43
2022-11-28T09:05:43.257Z,990.47
2022-11-28T09:06:43.274Z,990.47
2022-11-28T09:07:43.382Z,990.47
2022-11-28T09:08:43.226Z,990.44
2022-11-28T09:09:43.237Z,990.43
2022-11-28T09:10:43.255Z,990.43
2022-11-28T09:11:43.253Z,990.43
2022-11-28T09:12:43.217Z,990.37
2022-11-28T09:13:43.223Z,990.39
2022-11-28T09:14:43.263Z,990.36
2022-11-28T09:15:43.241Z,990.35
2022-11-28T09:16:43.368Z,990.40
2022-11-28T09:17:43.157Z,990.37
2022-11-28T09:18:43.159Z,990.38
2022-11-28T09:19:43.455Z,990.41
2022-11-28T09:20:43.152Z,990.41
2022-11-28T09:21:43.209Z,990.40
2022-11-28T09:22:43.232Z,990.42
2022-11-28T09:23:43.157Z,990.42
2022-11-28T09:24:43.186Z,990.35
2022-11-28T09:25:43.148Z,990.39
2022-11-28T09:26:43.163Z,990.41
2022-11-28T09:27:43.157Z,990.44
2022-11-28T09:28:43.146Z,990.42
2022-11-28T09:29:43.317Z,990.41
2022-11-28T09:30:43.127Z,990.42
2022-11-28T09:31:47.106Z,990.43
2022-11-28T09:32:44.106Z,990.42
2022-11-28T09:33:43.109Z,990.45
2022-11-28T09:34:43.063Z,990.42
2022-11-28T09:35:43.090Z,990.41
2022-11-28T09:36:43.053Z,990.44
2022-11-28T09:37:43.073Z,990.32
2022-11-28T09:38:43.081Z,990.33
2022-11-28T09:39:57.298Z,990.32
2022-11-28T09:40:45.024Z,990.34
2022-11-28T09:41:43.050Z,990.38
2022-11-28T09:42:43.055Z,990.34
2022-11-28T09:43:43.110Z,990.27
2022-11-28T09:44:43.020Z,990.29
2022-11-28T09:45:43.094Z,990.23
2022-11-28T09:46:43.017Z,990.25
2022-11-28T09:47:43.001Z,990.24
2022-11-28T09:48:43.095Z,990.21
2022-11-28T09:49:43.398Z,990.25
2022-11-28T09:50:42.998Z,990.22
2022-11-28T09:51:42.957Z,990.15
2022-11-28T09:52:43.112Z,990.14
2022-11-28T09:53:43.075Z,990.17
2022-11-28T09:54:43.008Z,990.14
2022-11-28T09:55:43.007Z,990.14
2022-11-28T09:56:42.940Z,990.18
2022-11-28T09:57:42.956Z,990.15
2022-11-28T09:58:42.938Z,990.16
2022-11-28T09:59:43.087Z,990.20
2022-11-28T10:00:43.008Z,990.22
2022-11-28T10:01:42.929Z,990.14
2022-11-28T10:02:42.920Z,990.18
2022-11-28T10:03:42.928Z,990.16
2022-11-28T10:04:42.977Z,990.20
2022-11-28T10:05:42.919Z,990.16
2022-11-28T10:06:42.910Z,990.20
2022-11-28T10:07:42.951Z,990.13
2022-11-28T10:08:42.906Z,990.14
2022-11-28T10:09:43.093Z,990.18
2022-11-28T10:10:42.909Z,990.17
2022-11-28T10:11:42.909Z,990.13
2022-11-28T10:12:42.863Z,990.13
2022-11-28T10:14:06.685Z,990.07
2022-11-28T10:14:44.904Z,990.10
2022-11-28T10:15:42.868Z,990.15
2022-11-28T10:16:42.913Z,990.06
2022-11-28T10:17:42.863Z,990.13
2022-11-28T10:18:42.838Z,990.08
2022-11-28T10:19:58.234Z,990.05
2022-11-28T10:20:44.818Z,989.96
2022-11-28T10:21:42.809Z,989.97
2022-11-28T10:22:42.888Z,989.95
2022-11-28T10:23:42.827Z,989.95
2022-11-28T10:24:42.803Z,990.02
2022-11-28T10:25:42.776Z,989.94
2022-11-28T10:26:42.811Z,990.01
2022-11-28T10:27:42.808Z,989.97
2022-11-28T10:28:42.903Z,990.02
2022-11-28T10:29:43.132Z,989.96
2022-11-28T10:30:42.812Z,989.95
2022-11-28T10:31:42.840Z,989.92
2022-11-28T10:32:42.768Z,989.95
2022-11-28T10:33:42.785Z,989.91
2022-11-28T10:34:42.740Z,989.94
2022-11-28T10:35:42.762Z,989.85
2022-11-28T10:36:42.745Z,989.85
2022-11-28T10:37:42.761Z,989.83
2022-11-28T10:38:42.918Z,989.82
2022-11-28T10:39:42.983Z,989.77
2022-11-28T10:40:42.709Z,989.78
2022-11-28T10:41:42.713Z,989.73
2022-11-28T10:42:42.750Z,989.77
2022-11-28T10:43:42.710Z,989.75
2022-11-28T10:44:42.732Z,989.84
2022-11-28T10:45:42.723Z,989.82
2022-11-28T10:46:42.744Z,989.80
2022-11-28T10:47:42.742Z,989.82
2022-11-28T10:48:42.709Z,989.87
2022-11-28T10:49:43.022Z,989.91
2022-11-28T10:50:42.665Z,989.83
2022-11-28T10:51:42.675Z,989.85
2022-11-28T10:52:42.659Z,989.85
2022-11-28T10:53:42.676Z,989.86
2022-11-28T10:54:42.768Z,989.92
2022-11-28T10:55:42.719Z,989.87
2022-11-28T10:56:42.845Z,989.91
2022-11-28T10:57:42.675Z,989.93
2022-11-28T10:58:42.761Z,989.96
2022-11-28T10:59:42.810Z,989.88
2022-11-28T11:00:42.605Z,989.91
2022-11-28T11:01:45.920Z,989.91
2022-11-28T11:02:44.577Z,989.89
2022-11-28T11:03:42.590Z,989.91
2022-11-28T11:04:42.680Z,989.88
2022-11-28T11:05:42.593Z,989.90
2022-11-28T11:07:06.957Z,989.91
2022-11-28T11:07:43.603Z,989.88
2022-11-28T11:08:42.573Z,989.90
2022-11-28T11:09:42.830Z,989.93
2022-11-28T11:10:42.588Z,989.90
2022-11-28T11:11:42.604Z,989.93
2022-11-28T11:12:42.562Z,989.90
2022-11-28T11:13:42.539Z,989.85
2022-11-28T11:14:42.606Z,989.89
2022-11-28T11:15:42.599Z,989.89
2022-11-28T11:16:42.526Z,989.96
2022-11-28T11:17:42.497Z,989.87
2022-11-28T11:18:42.534Z,989.93
2022-11-28T11:19:42.852Z,989.88
2022-11-28T11:20:42.493Z,989.90
2022-11-28T11:21:42.500Z,989.87
2022-11-28T11:22:43.044Z,989.89
2022-11-28T11:23:42.484Z,989.87
2022-11-28T11:24:42.498Z,989.91
2022-11-28T11:25:42.469Z,989.92
2022-11-28T11:26:42.489Z,989.86
2022-11-28T11:27:42.469Z,989.92
2022-11-28T11:28:42.505Z,989.91
2022-11-28T11:29:44.751Z,989.87
2022-11-28T11:30:42.528Z,989.89
2022-11-28T11:31:42.443Z,989.90
2022-11-28T11:32:43.280Z,989.90
2022-11-28T11:33:42.460Z,989.88
2022-11-28T11:34:42.422Z,989.89
2022-11-28T11:35:42.427Z,989.83
2022-11-28T11:36:42.417Z,989.82
2022-11-28T11:37:42.428Z,989.88
2022-11-28T11:38:42.449Z,989.88
2022-11-28T11:39:42.665Z,989.92
2022-11-28T11:40:42.395Z,989.90
2022-11-28T11:41:42.392Z,989.90
2022-11-28T11:42:42.449Z,989.87
2022-11-28T11:43:42.404Z,989.90
2022-11-28T11:44:42.394Z,989.87
2022-11-28T11:45:42.459Z,989.85
2022-11-28T11:46:42.528Z,989.89
2022-11-28T11:47:42.384Z,989.87
2022-11-28T11:48:42.373Z,989.87
2022-11-28T11:49:42.708Z,989.83
2022-11-28T11:50:42.357Z,989.80
2022-11-28T11:51:42.365Z,989.84
2022-11-28T11:52:42.370Z,989.76
2022-11-28T11:53:42.350Z,989.84
2022-11-28T11:54:42.306Z,989.87
2022-11-28T11:55:42.302Z,989.88
2022-11-28T11:56:42.311Z,989.85
2022-11-28T11:57:42.326Z,989.81
2022-11-28T11:58:42.296Z,989.83
2022-11-28T11:59:42.505Z,989.80
2022-11-28T12:00:42.305Z,989.81
2022-11-28T12:01:42.299Z,989.79
2022-11-28T12:02:42.373Z,989.75
2022-11-28T12:03:42.355Z,989.75
2022-11-28T12:04:48.036Z,989.71
2022-11-28T12:06:12.144Z,989.75
2022-11-28T12:06:44.266Z,989.75
2022-11-28T12:07:42.303Z,989.76
2022-11-28T12:08:42.237Z,989.71
2022-11-28T12:09:42.722Z,989.74
2022-11-28T12:10:42.218Z,989.75
2022-11-28T12:12:44.217Z,989.76
2022-11-28T12:13:42.219Z,989.74
2022-11-28T12:14:42.735Z,989.76
2022-11-28T12:15:42.235Z,989.80
2022-11-28T12:16:42.270Z,989.77
2022-11-28T12:17:52.365Z,989.77
2022-11-28T12:18:44.188Z,989.76
2022-11-28T12:19:42.189Z,989.76
2022-11-28T12:20:42.212Z,989.79
2022-11-28T12:21:42.171Z,989.73
2022-11-28T12:22:42.209Z,989.74
2022-11-28T12:23:42.161Z,989.78
2022-11-28T12:24:42.222Z,989.76
2022-11-28T12:25:42.178Z,989.73
2022-11-28T12:26:42.144Z,989.76
2022-11-28T12:27:42.150Z,989.70
2022-11-28T12:28:42.167Z,989.73
2022-11-28T12:29:42.478Z,989.68